sensor_id;sensor_type;location;lat;lon;timestamp;temperature;humidity
27890;DHT22;15238;49.082;9.102;2022-08-01T00:01:14;21.40;77.30
27890;DHT22;15238;49.082;9.102;2022-08-01T00:03:15;21.40;77.40
27890;DHT22;15238;49.082;9.102;2022-08-01T00:05:15;21.40;77.60
27890;DHT22;15238;49.082;9.102;2022-08-01T00:07:16;21.40;77.90
27890;DHT22;15238;49.082;9.102;2022-08-01T00:09:16;21.40;77.90
27890;DHT22;15238;49.082;9.102;2022-08-01T00:11:17;21.30;78.10
27890;DHT22;15238;49.082;9.102;2022-08-01T00:13:17;21.40;78.20
27890;DHT22;15238;49.082;9.102;2022-08-01T00:15:18;21.30;78.30
27890;DHT22;15238;49.082;9.102;2022-08-01T00:17:19;21.20;78.70
27890;DHT22;15238;49.082;9.102;2022-08-01T00:19:20;21.20;78.90
27890;DHT22;15238;49.082;9.102;2022-08-01T00:21:21;21.10;78.90
27890;DHT22;15238;49.082;9.102;2022-08-01T00:23:21;21.10;79.30
27890;DHT22;15238;49.082;9.102;2022-08-01T00:25:22;21.10;79.40
27890;DHT22;15238;49.082;9.102;2022-08-01T00:27:22;21.00;79.70
27890;DHT22;15238;49.082;9.102;2022-08-01T00:29:23;21.00;80.50
27890;DHT22;15238;49.082;9.102;2022-08-01T00:31:23;20.90;79.90
27890;DHT22;15238;49.082;9.102;2022-08-01T00:33:24;20.90;80.20
27890;DHT22;15238;49.082;9.102;2022-08-01T00:35:25;20.90;80.40
27890;DHT22;15238;49.082;9.102;2022-08-01T00:37:25;20.90;81.20
27890;DHT22;15238;49.082;9.102;2022-08-01T00:39:26;20.90;81.00
27890;DHT22;15238;49.082;9.102;2022-08-01T00:41:26;20.90;81.20
27890;DHT22;15238;49.082;9.102;2022-08-01T00:43:27;20.90;81.30
27890;DHT22;15238;49.082;9.102;2022-08-01T00:45:27;20.90;81.10
27890;DHT22;15238;49.082;9.102;2022-08-01T00:47:28;21.00;81.00
27890;DHT22;15238;49.082;9.102;2022-08-01T00:49:28;21.00;81.10
27890;DHT22;15238;49.082;9.102;2022-08-01T00:51:29;21.10;80.90
27890;DHT22;15238;49.082;9.102;2022-08-01T00:53:30;21.10;80.50
27890;DHT22;15238;49.082;9.102;2022-08-01T00:55:31;21.20;80.60
27890;DHT22;15238;49.082;9.102;2022-08-01T00:57:32;21.30;80.40
27890;DHT22;15238;49.082;9.102;2022-08-01T00:59:33;21.30;81.00
27890;DHT22;15238;49.082;9.102;2022-08-01T01:01:34;21.40;80.30
27890;DHT22;15238;49.082;9.102;2022-08-01T01:03:35;21.40;80.50
27890;DHT22;15238;49.082;9.102;2022-08-01T01:05:43;21.40;80.30
27890;DHT22;15238;49.082;9.102;2022-08-01T01:10:12;21.50;80.40
27890;DHT22;15238;49.082;9.102;2022-08-01T01:14:27;21.50;80.50
27890;DHT22;15238;49.082;9.102;2022-08-01T01:16:30;21.40;80.70
27890;DHT22;15238;49.082;9.102;2022-08-01T01:20:44;21.40;80.90
27890;DHT22;15238;49.082;9.102;2022-08-01T01:27:42;21.30;81.50
27890;DHT22;15238;49.082;9.102;2022-08-01T01:29:51;21.30;81.90
27890;DHT22;15238;49.082;9.102;2022-08-01T01:32:09;21.20;82.20
27890;DHT22;15238;49.082;9.102;2022-08-01T01:34:15;21.20;82.40
27890;DHT22;15238;49.082;9.102;2022-08-01T01:36:18;21.20;82.90
27890;DHT22;15238;49.082;9.102;2022-08-01T01:38:22;21.20;82.90
27890;DHT22;15238;49.082;9.102;2022-08-01T01:40:24;21.20;83.10
27890;DHT22;15238;49.082;9.102;2022-08-01T01:42:25;21.10;83.20
27890;DHT22;15238;49.082;9.102;2022-08-01T01:44:27;21.10;83.40
27890;DHT22;15238;49.082;9.102;2022-08-01T01:46:29;21.10;83.50
27890;DHT22;15238;49.082;9.102;2022-08-01T01:48:32;21.00;83.70
27890;DHT22;15238;49.082;9.102;2022-08-01T01:50:35;21.00;84.00
27890;DHT22;15238;49.082;9.102;2022-08-01T01:52:37;21.00;84.10
27890;DHT22;15238;49.082;9.102;2022-08-01T01:54:44;21.00;84.30
27890;DHT22;15238;49.082;9.102;2022-08-01T01:56:46;21.00;84.60
27890;DHT22;15238;49.082;9.102;2022-08-01T01:58:53;21.00;85.00
27890;DHT22;15238;49.082;9.102;2022-08-01T02:00:57;20.90;85.40
27890;DHT22;15238;49.082;9.102;2022-08-01T02:03:01;20.90;86.20
27890;DHT22;15238;49.082;9.102;2022-08-01T02:05:05;20.80;85.80
27890;DHT22;15238;49.082;9.102;2022-08-01T02:07:06;20.80;86.50
27890;DHT22;15238;49.082;9.102;2022-08-01T02:09:09;20.70;86.70
27890;DHT22;15238;49.082;9.102;2022-08-01T02:11:10;20.70;87.00
27890;DHT22;15238;49.082;9.102;2022-08-01T02:13:21;20.70;87.50
27890;DHT22;15238;49.082;9.102;2022-08-01T02:15:23;20.70;87.70
27890;DHT22;15238;49.082;9.102;2022-08-01T02:17:24;20.60;88.40
27890;DHT22;15238;49.082;9.102;2022-08-01T02:19:25;20.50;88.50
27890;DHT22;15238;49.082;9.102;2022-08-01T02:21:34;20.50;88.80
27890;DHT22;15238;49.082;9.102;2022-08-01T02:23:37;20.50;89.50
27890;DHT22;15238;49.082;9.102;2022-08-01T02:25:43;20.40;89.80
27890;DHT22;15238;49.082;9.102;2022-08-01T02:28:03;20.40;90.00
27890;DHT22;15238;49.082;9.102;2022-08-01T02:30:06;20.40;90.20
27890;DHT22;15238;49.082;9.102;2022-08-01T02:32:12;20.40;90.40
27890;DHT22;15238;49.082;9.102;2022-08-01T02:34:17;20.40;90.70
27890;DHT22;15238;49.082;9.102;2022-08-01T02:36:19;20.40;90.80
27890;DHT22;15238;49.082;9.102;2022-08-01T02:38:23;20.30;91.00
27890;DHT22;15238;49.082;9.102;2022-08-01T02:40:27;20.30;91.10
27890;DHT22;15238;49.082;9.102;2022-08-01T02:42:28;20.30;91.20
27890;DHT22;15238;49.082;9.102;2022-08-01T02:44:32;20.30;91.30
27890;DHT22;15238;49.082;9.102;2022-08-01T02:46:39;20.30;91.40
27890;DHT22;15238;49.082;9.102;2022-08-01T02:48:41;20.30;91.50
27890;DHT22;15238;49.082;9.102;2022-08-01T02:50:44;20.30;91.50
27890;DHT22;15238;49.082;9.102;2022-08-01T02:52:48;20.30;91.80
27890;DHT22;15238;49.082;9.102;2022-08-01T02:54:53;20.20;92.00
27890;DHT22;15238;49.082;9.102;2022-08-01T02:56:55;20.20;92.20
27890;DHT22;15238;49.082;9.102;2022-08-01T02:58:56;20.20;92.40
27890;DHT22;15238;49.082;9.102;2022-08-01T03:00:57;20.20;92.60
27890;DHT22;15238;49.082;9.102;2022-08-01T03:02:59;20.20;92.80
27890;DHT22;15238;49.082;9.102;2022-08-01T03:05:02;20.20;92.80
27890;DHT22;15238;49.082;9.102;2022-08-01T03:07:05;20.20;92.80
27890;DHT22;15238;49.082;9.102;2022-08-01T03:09:06;20.20;93.00
27890;DHT22;15238;49.082;9.102;2022-08-01T03:11:08;20.20;93.10
27890;DHT22;15238;49.082;9.102;2022-08-01T03:13:09;20.20;93.20
27890;DHT22;15238;49.082;9.102;2022-08-01T03:15:12;20.10;93.50
27890;DHT22;15238;49.082;9.102;2022-08-01T03:17:14;20.10;93.70
27890;DHT22;15238;49.082;9.102;2022-08-01T03:19:18;20.00;94.00
27890;DHT22;15238;49.082;9.102;2022-08-01T03:21:22;20.00;94.10
27890;DHT22;15238;49.082;9.102;2022-08-01T03:23:24;19.90;94.60
27890;DHT22;15238;49.082;9.102;2022-08-01T03:25:25;19.80;94.80
27890;DHT22;15238;49.082;9.102;2022-08-01T03:27:27;19.80;95.10
27890;DHT22;15238;49.082;9.102;2022-08-01T03:29:29;19.70;95.30
27890;DHT22;15238;49.082;9.102;2022-08-01T03:31:34;19.60;95.50
27890;DHT22;15238;49.082;9.102;2022-08-01T03:33:35;19.60;95.80
27890;DHT22;15238;49.082;9.102;2022-08-01T03:35:45;19.60;96.20
27890;DHT22;15238;49.082;9.102;2022-08-01T03:37:50;19.60;96.40
27890;DHT22;15238;49.082;9.102;2022-08-01T03:40:06;19.60;97.00
27890;DHT22;15238;49.082;9.102;2022-08-01T03:42:12;19.60;96.90
27890;DHT22;15238;49.082;9.102;2022-08-01T03:44:16;19.70;97.00
27890;DHT22;15238;49.082;9.102;2022-08-01T03:46:22;19.60;97.40
27890;DHT22;15238;49.082;9.102;2022-08-01T03:48:28;19.60;97.50
27890;DHT22;15238;49.082;9.102;2022-08-01T03:50:33;19.60;97.60
27890;DHT22;15238;49.082;9.102;2022-08-01T03:52:35;19.60;97.80
27890;DHT22;15238;49.082;9.102;2022-08-01T03:54:40;19.60;98.10
27890;DHT22;15238;49.082;9.102;2022-08-01T03:56:42;19.50;98.00
27890;DHT22;15238;49.082;9.102;2022-08-01T03:58:43;19.50;98.20
27890;DHT22;15238;49.082;9.102;2022-08-01T04:00:44;19.50;98.30
27890;DHT22;15238;49.082;9.102;2022-08-01T04:02:47;19.50;98.40
27890;DHT22;15238;49.082;9.102;2022-08-01T04:04:48;19.40;98.70
27890;DHT22;15238;49.082;9.102;2022-08-01T04:06:49;19.40;99.00
27890;DHT22;15238;49.082;9.102;2022-08-01T04:08:54;19.30;99.40
27890;DHT22;15238;49.082;9.102;2022-08-01T04:10:58;19.20;99.50
27890;DHT22;15238;49.082;9.102;2022-08-01T04:12:59;19.20;99.70
27890;DHT22;15238;49.082;9.102;2022-08-01T04:14:59;19.20;99.90
27890;DHT22;15238;49.082;9.102;2022-08-01T04:17:00;19.20;99.90
27890;DHT22;15238;49.082;9.102;2022-08-01T04:19:01;19.20;99.90
27890;DHT22;15238;49.082;9.102;2022-08-01T04:21:01;19.20;99.90
27890;DHT22;15238;49.082;9.102;2022-08-01T04:23:03;19.10;99.90
27890;DHT22;15238;49.082;9.102;2022-08-01T04:25:26;19.10;99.90
27890;DHT22;15238;49.082;9.102;2022-08-01T04:27:32;19.20;99.90
27890;DHT22;15238;49.082;9.102;2022-08-01T04:29:36;19.20;99.90
27890;DHT22;15238;49.082;9.102;2022-08-01T04:31:39;19.30;99.90
27890;DHT22;15238;49.082;9.102;2022-08-01T04:33:44;19.30;99.90
27890;DHT22;15238;49.082;9.102;2022-08-01T04:35:47;19.40;99.90
27890;DHT22;15238;49.082;9.102;2022-08-01T04:37:50;19.50;99.90
27890;DHT22;15238;49.082;9.102;2022-08-01T04:39:53;19.60;99.90
27890;DHT22;15238;49.082;9.102;2022-08-01T04:41:55;19.60;99.90
27890;DHT22;15238;49.082;9.102;2022-08-01T04:43:59;19.70;99.90
27890;DHT22;15238;49.082;9.102;2022-08-01T04:46:01;19.80;99.90
27890;DHT22;15238;49.082;9.102;2022-08-01T04:48:05;19.80;99.90
27890;DHT22;15238;49.082;9.102;2022-08-01T04:50:07;19.90;99.90
27890;DHT22;15238;49.082;9.102;2022-08-01T04:52:08;19.90;99.90
27890;DHT22;15238;49.082;9.102;2022-08-01T04:54:10;19.90;99.90
27890;DHT22;15238;49.082;9.102;2022-08-01T04:56:10;19.90;99.90
27890;DHT22;15238;49.082;9.102;2022-08-01T04:58:15;19.90;99.90
27890;DHT22;15238;49.082;9.102;2022-08-01T05:00:16;20.00;99.90
27890;DHT22;15238;49.082;9.102;2022-08-01T05:02:18;20.10;99.90
27890;DHT22;15238;49.082;9.102;2022-08-01T05:04:18;20.20;99.90
27890;DHT22;15238;49.082;9.102;2022-08-01T05:06:20;20.30;99.90
27890;DHT22;15238;49.082;9.102;2022-08-01T05:08:20;20.30;99.90
27890;DHT22;15238;49.082;9.102;2022-08-01T05:10:21;20.40;99.90
27890;DHT22;15238;49.082;9.102;2022-08-01T05:12:21;20.50;99.90
27890;DHT22;15238;49.082;9.102;2022-08-01T05:14:22;20.60;99.90
27890;DHT22;15238;49.082;9.102;2022-08-01T05:16:22;20.60;99.90
27890;DHT22;15238;49.082;9.102;2022-08-01T05:18:23;20.80;99.80
27890;DHT22;15238;49.082;9.102;2022-08-01T05:20:23;21.00;99.20
27890;DHT22;15238;49.082;9.102;2022-08-01T05:22:24;21.10;98.80
27890;DHT22;15238;49.082;9.102;2022-08-01T05:24:28;21.20;98.50
27890;DHT22;15238;49.082;9.102;2022-08-01T05:26:29;21.50;98.20
27890;DHT22;15238;49.082;9.102;2022-08-01T05:28:29;21.80;97.80
27890;DHT22;15238;49.082;9.102;2022-08-01T05:30:30;22.10;97.20
27890;DHT22;15238;49.082;9.102;2022-08-01T05:32:30;22.40;96.70
27890;DHT22;15238;49.082;9.102;2022-08-01T05:34:32;22.50;96.50
27890;DHT22;15238;49.082;9.102;2022-08-01T05:36:32;22.70;96.00
27890;DHT22;15238;49.082;9.102;2022-08-01T05:38:33;22.90;95.70
27890;DHT22;15238;49.082;9.102;2022-08-01T05:40:35;22.90;95.70
27890;DHT22;15238;49.082;9.102;2022-08-01T05:42:36;23.10;95.40
27890;DHT22;15238;49.082;9.102;2022-08-01T05:44:36;23.10;95.30
27890;DHT22;15238;49.082;9.102;2022-08-01T05:46:37;23.20;95.10
27890;DHT22;15238;49.082;9.102;2022-08-01T05:48:38;23.20;94.90
27890;DHT22;15238;49.082;9.102;2022-08-01T05:50:38;23.30;94.70
27890;DHT22;15238;49.082;9.102;2022-08-01T05:52:39;23.40;94.60
27890;DHT22;15238;49.082;9.102;2022-08-01T05:54:40;23.50;94.40
27890;DHT22;15238;49.082;9.102;2022-08-01T05:56:40;23.60;94.40
27890;DHT22;15238;49.082;9.102;2022-08-01T05:58:41;23.70;94.30
27890;DHT22;15238;49.082;9.102;2022-08-01T06:00:41;23.90;94.00
27890;DHT22;15238;49.082;9.102;2022-08-01T06:02:42;24.20;93.30
27890;DHT22;15238;49.082;9.102;2022-08-01T06:04:43;24.40;92.90
27890;DHT22;15238;49.082;9.102;2022-08-01T06:06:44;24.10;93.00
27890;DHT22;15238;49.082;9.102;2022-08-01T06:08:44;24.10;93.20
27890;DHT22;15238;49.082;9.102;2022-08-01T06:10:44;24.20;93.10
27890;DHT22;15238;49.082;9.102;2022-08-01T06:12:45;24.20;92.80
27890;DHT22;15238;49.082;9.102;2022-08-01T06:14:45;24.10;93.30
27890;DHT22;15238;49.082;9.102;2022-08-01T06:16:46;24.20;92.70
27890;DHT22;15238;49.082;9.102;2022-08-01T06:18:46;24.30;92.60
27890;DHT22;15238;49.082;9.102;2022-08-01T06:20:47;24.40;92.50
27890;DHT22;15238;49.082;9.102;2022-08-01T06:22:48;24.60;92.40
27890;DHT22;15238;49.082;9.102;2022-08-01T06:24:48;24.60;92.20
27890;DHT22;15238;49.082;9.102;2022-08-01T06:26:49;24.70;91.90
27890;DHT22;15238;49.082;9.102;2022-08-01T06:28:50;24.90;91.70
27890;DHT22;15238;49.082;9.102;2022-08-01T06:30:50;24.70;92.10
27890;DHT22;15238;49.082;9.102;2022-08-01T06:32:51;24.90;91.70
27890;DHT22;15238;49.082;9.102;2022-08-01T06:34:53;25.10;91.60
27890;DHT22;15238;49.082;9.102;2022-08-01T06:36:54;25.10;91.40
27890;DHT22;15238;49.082;9.102;2022-08-01T06:38:54;25.20;91.70
27890;DHT22;15238;49.082;9.102;2022-08-01T06:40:55;25.20;91.40
27890;DHT22;15238;49.082;9.102;2022-08-01T06:42:55;25.30;91.40
27890;DHT22;15238;49.082;9.102;2022-08-01T06:44:56;25.30;90.90
27890;DHT22;15238;49.082;9.102;2022-08-01T06:46:56;25.50;90.70
27890;DHT22;15238;49.082;9.102;2022-08-01T06:48:58;25.40;90.70
27890;DHT22;15238;49.082;9.102;2022-08-01T06:50:59;25.40;90.30
27890;DHT22;15238;49.082;9.102;2022-08-01T06:53:09;25.20;90.70
27890;DHT22;15238;49.082;9.102;2022-08-01T06:55:09;25.10;90.90
27890;DHT22;15238;49.082;9.102;2022-08-01T06:57:10;25.20;90.90
27890;DHT22;15238;49.082;9.102;2022-08-01T06:59:10;24.90;91.00
27890;DHT22;15238;49.082;9.102;2022-08-01T07:01:11;24.90;91.20
27890;DHT22;15238;49.082;9.102;2022-08-01T07:03:11;25.00;91.20
27890;DHT22;15238;49.082;9.102;2022-08-01T07:05:12;24.80;91.40
27890;DHT22;15238;49.082;9.102;2022-08-01T07:07:13;25.10;91.60
27890;DHT22;15238;49.082;9.102;2022-08-01T07:09:13;25.30;91.10
27890;DHT22;15238;49.082;9.102;2022-08-01T07:11:14;25.20;91.00
27890;DHT22;15238;49.082;9.102;2022-08-01T07:13:14;25.50;90.60
27890;DHT22;15238;49.082;9.102;2022-08-01T07:15:20;25.50;90.30
27890;DHT22;15238;49.082;9.102;2022-08-01T07:17:26;25.30;90.70
27890;DHT22;15238;49.082;9.102;2022-08-01T07:19:27;25.80;90.40
27890;DHT22;15238;49.082;9.102;2022-08-01T07:21:28;26.20;89.70
27890;DHT22;15238;49.082;9.102;2022-08-01T07:23:28;26.00;89.20
27890;DHT22;15238;49.082;9.102;2022-08-01T07:25:29;25.90;89.60
27890;DHT22;15238;49.082;9.102;2022-08-01T07:27:29;25.80;89.80
27890;DHT22;15238;49.082;9.102;2022-08-01T07:29:30;25.70;90.10
27890;DHT22;15238;49.082;9.102;2022-08-01T07:31:30;25.60;90.40
27890;DHT22;15238;49.082;9.102;2022-08-01T07:33:31;25.80;89.90
27890;DHT22;15238;49.082;9.102;2022-08-01T07:35:32;25.90;89.60
27890;DHT22;15238;49.082;9.102;2022-08-01T07:37:32;26.30;88.40
27890;DHT22;15238;49.082;9.102;2022-08-01T07:39:33;26.30;87.00
27890;DHT22;15238;49.082;9.102;2022-08-01T07:41:33;26.30;85.60
27890;DHT22;15238;49.082;9.102;2022-08-01T07:43:34;26.20;86.00
27890;DHT22;15238;49.082;9.102;2022-08-01T07:45:36;26.30;86.10
27890;DHT22;15238;49.082;9.102;2022-08-01T07:47:36;26.40;85.50
27890;DHT22;15238;49.082;9.102;2022-08-01T07:49:37;26.70;83.10
27890;DHT22;15238;49.082;9.102;2022-08-01T07:51:37;26.20;83.40
27890;DHT22;15238;49.082;9.102;2022-08-01T07:53:38;26.30;83.90
27890;DHT22;15238;49.082;9.102;2022-08-01T07:55:39;26.40;84.20
27890;DHT22;15238;49.082;9.102;2022-08-01T07:57:39;26.30;84.70
27890;DHT22;15238;49.082;9.102;2022-08-01T07:59:40;26.30;84.50
27890;DHT22;15238;49.082;9.102;2022-08-01T08:01:40;26.10;85.20
27890;DHT22;15238;49.082;9.102;2022-08-01T08:03:41;26.00;85.70
27890;DHT22;15238;49.082;9.102;2022-08-01T08:05:42;26.20;85.10
27890;DHT22;15238;49.082;9.102;2022-08-01T08:07:42;26.00;85.20
27890;DHT22;15238;49.082;9.102;2022-08-01T08:09:43;26.10;85.70
27890;DHT22;15238;49.082;9.102;2022-08-01T08:11:45;26.10;84.60
27890;DHT22;15238;49.082;9.102;2022-08-01T08:13:45;26.30;84.70
27890;DHT22;15238;49.082;9.102;2022-08-01T08:15:46;26.40;83.80
27890;DHT22;15238;49.082;9.102;2022-08-01T08:17:46;26.40;83.50
27890;DHT22;15238;49.082;9.102;2022-08-01T08:19:47;26.50;82.80
27890;DHT22;15238;49.082;9.102;2022-08-01T08:21:48;26.50;83.10
27890;DHT22;15238;49.082;9.102;2022-08-01T08:23:48;26.40;84.10
27890;DHT22;15238;49.082;9.102;2022-08-01T08:26:07;26.60;84.00
27890;DHT22;15238;49.082;9.102;2022-08-01T08:28:07;26.70;82.00
27890;DHT22;15238;49.082;9.102;2022-08-01T08:30:08;26.90;81.80
27890;DHT22;15238;49.082;9.102;2022-08-01T08:32:11;27.10;81.50
27890;DHT22;15238;49.082;9.102;2022-08-01T08:34:12;26.80;81.50
27890;DHT22;15238;49.082;9.102;2022-08-01T08:36:14;26.60;82.10
27890;DHT22;15238;49.082;9.102;2022-08-01T08:38:15;26.20;83.40
27890;DHT22;15238;49.082;9.102;2022-08-01T08:40:15;26.30;84.40
27890;DHT22;15238;49.082;9.102;2022-08-01T08:42:16;26.50;83.10
27890;DHT22;15238;49.082;9.102;2022-08-01T08:44:17;26.50;83.80
27890;DHT22;15238;49.082;9.102;2022-08-01T08:46:18;26.70;83.90
27890;DHT22;15238;49.082;9.102;2022-08-01T08:48:20;26.60;82.90
27890;DHT22;15238;49.082;9.102;2022-08-01T08:50:21;26.80;82.90
27890;DHT22;15238;49.082;9.102;2022-08-01T08:52:22;26.80;82.50
27890;DHT22;15238;49.082;9.102;2022-08-01T08:54:24;26.70;81.90
27890;DHT22;15238;49.082;9.102;2022-08-01T08:56:25;26.60;82.20
27890;DHT22;15238;49.082;9.102;2022-08-01T08:58:26;26.70;82.90
27890;DHT22;15238;49.082;9.102;2022-08-01T09:00:27;27.00;81.70
27890;DHT22;15238;49.082;9.102;2022-08-01T09:02:28;27.30;80.70
27890;DHT22;15238;49.082;9.102;2022-08-01T09:04:28;27.20;79.90
27890;DHT22;15238;49.082;9.102;2022-08-01T09:06:30;27.30;80.50
27890;DHT22;15238;49.082;9.102;2022-08-01T09:08:32;27.10;80.70
27890;DHT22;15238;49.082;9.102;2022-08-01T09:10:33;27.10;81.20
27890;DHT22;15238;49.082;9.102;2022-08-01T09:12:33;27.40;81.10
27890;DHT22;15238;49.082;9.102;2022-08-01T09:14:44;27.80;80.10
27890;DHT22;15238;49.082;9.102;2022-08-01T09:16:45;27.70;79.10
27890;DHT22;15238;49.082;9.102;2022-08-01T09:18:45;27.70;78.80
27890;DHT22;15238;49.082;9.102;2022-08-01T09:20:46;27.80;79.10
27890;DHT22;15238;49.082;9.102;2022-08-01T09:22:46;27.90;79.20
27890;DHT22;15238;49.082;9.102;2022-08-01T09:27:14;27.70;78.70
27890;DHT22;15238;49.082;9.102;2022-08-01T09:29:21;27.50;78.60
27890;DHT22;15238;49.082;9.102;2022-08-01T09:31:22;27.70;77.70
27890;DHT22;15238;49.082;9.102;2022-08-01T09:33:23;27.80;77.20
27890;DHT22;15238;49.082;9.102;2022-08-01T09:35:27;27.60;78.10
27890;DHT22;15238;49.082;9.102;2022-08-01T09:37:31;27.50;78.40
27890;DHT22;15238;49.082;9.102;2022-08-01T09:39:36;27.50;79.00
27890;DHT22;15238;49.082;9.102;2022-08-01T09:41:37;27.30;78.70
27890;DHT22;15238;49.082;9.102;2022-08-01T09:43:38;27.20;80.00
27890;DHT22;15238;49.082;9.102;2022-08-01T09:45:39;27.50;79.90
27890;DHT22;15238;49.082;9.102;2022-08-01T09:47:40;27.70;78.80
27890;DHT22;15238;49.082;9.102;2022-08-01T09:49:41;27.70;77.90
27890;DHT22;15238;49.082;9.102;2022-08-01T09:51:42;27.30;77.90
27890;DHT22;15238;49.082;9.102;2022-08-01T09:53:46;27.30;78.10
27890;DHT22;15238;49.082;9.102;2022-08-01T09:55:46;27.10;78.90
27890;DHT22;15238;49.082;9.102;2022-08-01T09:57:56;27.20;78.90
27890;DHT22;15238;49.082;9.102;2022-08-01T09:59:59;27.50;78.70
27890;DHT22;15238;49.082;9.102;2022-08-01T10:02:00;28.00;77.90
27890;DHT22;15238;49.082;9.102;2022-08-01T10:04:06;28.20;77.50
27890;DHT22;15238;49.082;9.102;2022-08-01T10:06:21;28.60;76.70
27890;DHT22;15238;49.082;9.102;2022-08-01T10:08:22;29.00;75.20
27890;DHT22;15238;49.082;9.102;2022-08-01T10:10:25;29.20;74.70
27890;DHT22;15238;49.082;9.102;2022-08-01T10:12:26;29.00;74.40
27890;DHT22;15238;49.082;9.102;2022-08-01T10:14:28;28.70;75.20
27890;DHT22;15238;49.082;9.102;2022-08-01T10:16:30;28.90;74.40
27890;DHT22;15238;49.082;9.102;2022-08-01T10:18:34;28.80;75.10
27890;DHT22;15238;49.082;9.102;2022-08-01T10:20:34;28.90;73.90
27890;DHT22;15238;49.082;9.102;2022-08-01T10:22:35;28.90;74.30
27890;DHT22;15238;49.082;9.102;2022-08-01T10:24:38;29.00;73.60
27890;DHT22;15238;49.082;9.102;2022-08-01T10:26:40;28.80;72.70
27890;DHT22;15238;49.082;9.102;2022-08-01T10:28:44;28.60;72.90
27890;DHT22;15238;49.082;9.102;2022-08-01T10:30:48;28.90;74.30
27890;DHT22;15238;49.082;9.102;2022-08-01T10:32:50;28.90;73.10
27890;DHT22;15238;49.082;9.102;2022-08-01T10:34:53;29.10;73.10
27890;DHT22;15238;49.082;9.102;2022-08-01T10:36:55;29.30;72.70
27890;DHT22;15238;49.082;9.102;2022-08-01T10:38:56;29.50;72.20
27890;DHT22;15238;49.082;9.102;2022-08-01T10:40:57;29.80;72.40
27890;DHT22;15238;49.082;9.102;2022-08-01T10:42:59;29.70;70.50
27890;DHT22;15238;49.082;9.102;2022-08-01T10:45:00;29.80;70.80
27890;DHT22;15238;49.082;9.102;2022-08-01T10:47:06;29.60;70.60
27890;DHT22;15238;49.082;9.102;2022-08-01T10:49:13;29.50;71.40
27890;DHT22;15238;49.082;9.102;2022-08-01T10:51:15;29.50;71.90
27890;DHT22;15238;49.082;9.102;2022-08-01T10:55:18;29.30;71.90
27890;DHT22;15238;49.082;9.102;2022-08-01T10:57:18;29.30;71.50
27890;DHT22;15238;49.082;9.102;2022-08-01T10:59:27;29.20;71.30
27890;DHT22;15238;49.082;9.102;2022-08-01T11:01:31;28.70;72.40
27890;DHT22;15238;49.082;9.102;2022-08-01T11:03:35;28.80;72.70
27890;DHT22;15238;49.082;9.102;2022-08-01T11:05:36;29.00;72.20
27890;DHT22;15238;49.082;9.102;2022-08-01T11:07:48;28.80;72.70
27890;DHT22;15238;49.082;9.102;2022-08-01T11:10:22;28.60;74.10
27890;DHT22;15238;49.082;9.102;2022-08-01T11:12:20;28.50;74.00
27890;DHT22;15238;49.082;9.102;2022-08-01T11:14:20;28.40;73.50
27890;DHT22;15238;49.082;9.102;2022-08-01T11:16:32;28.40;74.20
27890;DHT22;15238;49.082;9.102;2022-08-01T11:18:33;28.50;74.10
27890;DHT22;15238;49.082;9.102;2022-08-01T11:20:35;28.40;74.30
27890;DHT22;15238;49.082;9.102;2022-08-01T11:25:01;28.60;74.10
27890;DHT22;15238;49.082;9.102;2022-08-01T11:29:19;28.90;72.70
27890;DHT22;15238;49.082;9.102;2022-08-01T11:38:27;29.10;71.40
27890;DHT22;15238;49.082;9.102;2022-08-01T11:40:30;29.20;71.50
27890;DHT22;15238;49.082;9.102;2022-08-01T11:42:30;29.40;70.80
27890;DHT22;15238;49.082;9.102;2022-08-01T11:44:48;29.90;69.10
27890;DHT22;15238;49.082;9.102;2022-08-01T11:51:29;30.60;67.30
27890;DHT22;15238;49.082;9.102;2022-08-01T11:53:30;30.60;67.60
27890;DHT22;15238;49.082;9.102;2022-08-01T11:55:33;30.70;66.60
27890;DHT22;15238;49.082;9.102;2022-08-01T11:57:35;30.70;66.50
27890;DHT22;15238;49.082;9.102;2022-08-01T11:59:39;30.60;65.60
27890;DHT22;15238;49.082;9.102;2022-08-01T12:01:41;30.50;66.10
27890;DHT22;15238;49.082;9.102;2022-08-01T12:03:41;30.60;66.30
27890;DHT22;15238;49.082;9.102;2022-08-01T12:05:43;30.40;65.60
27890;DHT22;15238;49.082;9.102;2022-08-01T12:07:45;30.40;67.10
27890;DHT22;15238;49.082;9.102;2022-08-01T12:09:57;30.20;66.00
27890;DHT22;15238;49.082;9.102;2022-08-01T12:11:58;30.00;67.40
27890;DHT22;15238;49.082;9.102;2022-08-01T12:13:58;30.00;68.70
27890;DHT22;15238;49.082;9.102;2022-08-01T12:16:06;30.00;68.90
27890;DHT22;15238;49.082;9.102;2022-08-01T12:18:07;30.30;68.10
27890;DHT22;15238;49.082;9.102;2022-08-01T12:20:12;30.30;67.60
27890;DHT22;15238;49.082;9.102;2022-08-01T12:22:13;30.40;67.00
27890;DHT22;15238;49.082;9.102;2022-08-01T12:24:22;30.50;67.80
27890;DHT22;15238;49.082;9.102;2022-08-01T12:26:23;30.50;67.50
27890;DHT22;15238;49.082;9.102;2022-08-01T12:28:39;30.50;67.00
27890;DHT22;15238;49.082;9.102;2022-08-01T12:30:40;30.50;67.10
27890;DHT22;15238;49.082;9.102;2022-08-01T12:32:44;30.40;66.20
27890;DHT22;15238;49.082;9.102;2022-08-01T12:34:45;30.30;67.10
27890;DHT22;15238;49.082;9.102;2022-08-01T12:36:46;30.50;66.80
27890;DHT22;15238;49.082;9.102;2022-08-01T12:38:52;30.30;66.70
27890;DHT22;15238;49.082;9.102;2022-08-01T12:40:53;30.10;67.20
27890;DHT22;15238;49.082;9.102;2022-08-01T12:42:57;30.00;67.20
27890;DHT22;15238;49.082;9.102;2022-08-01T12:44:58;29.70;67.80
27890;DHT22;15238;49.082;9.102;2022-08-01T12:47:00;29.70;67.40
27890;DHT22;15238;49.082;9.102;2022-08-01T12:49:01;29.70;69.00
27890;DHT22;15238;49.082;9.102;2022-08-01T12:51:03;29.60;68.90
27890;DHT22;15238;49.082;9.102;2022-08-01T12:53:03;29.50;68.40
27890;DHT22;15238;49.082;9.102;2022-08-01T12:55:07;29.50;68.70
27890;DHT22;15238;49.082;9.102;2022-08-01T12:57:22;29.60;69.40
27890;DHT22;15238;49.082;9.102;2022-08-01T12:59:25;29.70;68.00
27890;DHT22;15238;49.082;9.102;2022-08-01T13:01:28;29.60;68.20
27890;DHT22;15238;49.082;9.102;2022-08-01T13:03:28;29.70;67.80
27890;DHT22;15238;49.082;9.102;2022-08-01T13:07:50;30.30;67.00
27890;DHT22;15238;49.082;9.102;2022-08-01T13:09:51;30.20;67.50
27890;DHT22;15238;49.082;9.102;2022-08-01T13:11:52;30.20;67.60
27890;DHT22;15238;49.082;9.102;2022-08-01T13:13:56;30.10;67.10
27890;DHT22;15238;49.082;9.102;2022-08-01T13:16:04;29.80;66.40
27890;DHT22;15238;49.082;9.102;2022-08-01T13:18:29;29.60;67.40
27890;DHT22;15238;49.082;9.102;2022-08-01T13:20:33;29.70;68.00
27890;DHT22;15238;49.082;9.102;2022-08-01T13:22:35;29.90;68.00
27890;DHT22;15238;49.082;9.102;2022-08-01T13:24:36;30.00;65.40
27890;DHT22;15238;49.082;9.102;2022-08-01T13:28:43;30.30;64.60
27890;DHT22;15238;49.082;9.102;2022-08-01T13:31:00;30.50;65.10